sensor_id;sensor_type;location;lat;lon;timestamp;pressure;altitude;pressure_sealevel;temperature;humidity
25855;BME280;13680;49.936;11.344;2024-02-15T00:00:10;97100.69;;;10.78;100.00
25855;BME280;13680;49.936;11.344;2024-02-15T00:02:35;97095.25;;;10.83;100.00
25855;BME280;13680;49.936;11.344;2024-02-15T00:05:01;97094.75;;;10.81;100.00
25855;BME280;13680;49.936;11.344;2024-02-15T00:07:26;97097.94;;;10.83;100.00
25855;BME280;13680;49.936;11.344;2024-02-15T00:09:52;97088.91;;;10.93;100.00
25855;BME280;13680;49.936;11.344;2024-02-15T00:12:19;97087.28;;;10.92;100.00
25855;BME280;13680;49.936;11.344;2024-02-15T00:14:44;97088.75;;;10.84;100.00
25855;BME280;13680;49.936;11.344;2024-02-15T00:17:10;97097.66;;;10.85;100.00
25855;BME280;13680;49.936;11.344;2024-02-15T00:19:37;97090.38;;;10.85;100.00
25855;BME280;13680;49.936;11.344;2024-02-15T00:22:03;97088.41;;;10.91;100.00
25855;BME280;13680;49.936;11.344;2024-02-15T00:24:29;97094.06;;;10.89;100.00
25855;BME280;13680;49.936;11.344;2024-02-15T00:26:56;97089.88;;;10.83;100.00
25855;BME280;13680;49.936;11.344;2024-02-15T00:29:21;97093.34;;;10.84;100.00
25855;BME280;13680;49.936;11.344;2024-02-15T00:31:46;97096.03;;;10.84;100.00
25855;BME280;13680;49.936;11.344;2024-02-15T00:34:12;97092.03;;;10.81;100.00
25855;BME280;13680;49.936;11.344;2024-02-15T00:36:37;97097.06;;;10.88;100.00
25855;BME280;13680;49.936;11.344;2024-02-15T00:39:02;97098.44;;;10.85;100.00
25855;BME280;13680;49.936;11.344;2024-02-15T00:41:31;97092.50;;;10.88;100.00
25855;BME280;13680;49.936;11.344;2024-02-15T00:43:59;97096.75;;;10.89;100.00
25855;BME280;13680;49.936;11.344;2024-02-15T00:46:24;97094.88;;;10.90;100.00
25855;BME280;13680;49.936;11.344;2024-02-15T00:48:52;97097.28;;;10.91;100.00
25855;BME280;13680;49.936;11.344;2024-02-15T00:51:17;97088.09;;;10.92;100.00
25855;BME280;13680;49.936;11.344;2024-02-15T00:53:43;97086.28;;;10.88;100.00
25855;BME280;13680;49.936;11.344;2024-02-15T00:56:08;97097.78;;;10.93;100.00
25855;BME280;13680;49.936;11.344;2024-02-15T00:58:33;97087.88;;;10.89;100.00
25855;BME280;13680;49.936;11.344;2024-02-15T01:00:59;97094.06;;;10.89;100.00
25855;BME280;13680;49.936;11.344;2024-02-15T01:03:25;97090.88;;;10.87;100.00
25855;BME280;13680;49.936;11.344;2024-02-15T01:05:51;97090.28;;;10.90;100.00
25855;BME280;13680;49.936;11.344;2024-02-15T01:08:16;97096.75;;;10.89;100.00
25855;BME280;13680;49.936;11.344;2024-02-15T01:10:42;97101.66;;;10.87;100.00
25855;BME280;13680;49.936;11.344;2024-02-15T01:13:07;97087.66;;;10.85;100.00
25855;BME280;13680;49.936;11.344;2024-02-15T01:15:33;97102.66;;;10.91;100.00
25855;BME280;13680;49.936;11.344;2024-02-15T01:17:59;97097.28;;;10.91;100.00
25855;BME280;13680;49.936;11.344;2024-02-15T01:20:24;97090.81;;;10.92;100.00
25855;BME280;13680;49.936;11.344;2024-02-15T01:22:49;97090.50;;;10.94;100.00
25855;BME280;13680;49.936;11.344;2024-02-15T01:25:16;97095.09;;;10.93;100.00
25855;BME280;13680;49.936;11.344;2024-02-15T01:27:42;97091.59;;;10.93;100.00
25855;BME280;13680;49.936;11.344;2024-02-15T01:30:08;97094.88;;;10.90;100.00
25855;BME280;13680;49.936;11.344;2024-02-15T01:32:34;97089.72;;;10.93;100.00
25855;BME280;13680;49.936;11.344;2024-02-15T01:34:59;97084.81;;;10.95;100.00
25855;BME280;13680;49.936;11.344;2024-02-15T01:37:25;97085.91;;;10.94;100.00
25855;BME280;13680;49.936;11.344;2024-02-15T01:39:51;97086.50;;;10.91;100.00
25855;BME280;13680;49.936;11.344;2024-02-15T01:42:16;97085.19;;;10.89;100.00
25855;BME280;13680;49.936;11.344;2024-02-15T01:44:42;97080.91;;;10.88;100.00
25855;BME280;13680;49.936;11.344;2024-02-15T01:47:09;97081.91;;;10.92;100.00
25855;BME280;13680;49.936;11.344;2024-02-15T01:49:35;97082.81;;;10.87;100.00
25855;BME280;13680;49.936;11.344;2024-02-15T01:52:02;97077.34;;;10.92;100.00
25855;BME280;13680;49.936;11.344;2024-02-15T01:54:27;97082.22;;;10.90;100.00
25855;BME280;13680;49.936;11.344;2024-02-15T01:56:54;97079.53;;;10.90;100.00
25855;BME280;13680;49.936;11.344;2024-02-15T01:59:22;97075.75;;;10.91;100.00
25855;BME280;13680;49.936;11.344;2024-02-15T02:01:48;97074.13;;;10.90;100.00
25855;BME280;13680;49.936;11.344;2024-02-15T02:04:15;97075.16;;;10.94;100.00
25855;BME280;13680;49.936;11.344;2024-02-15T02:06:40;97078.66;;;10.95;100.00
25855;BME280;13680;49.936;11.344;2024-02-15T02:09:10;97073.84;;;10.92;100.00
25855;BME280;13680;49.936;11.344;2024-02-15T02:11:37;97066.28;;;10.94;100.00
25855;BME280;13680;49.936;11.344;2024-02-15T02:14:03;97074.56;;;10.97;100.00
25855;BME280;13680;49.936;11.344;2024-02-15T02:16:30;97062.81;;;10.93;100.00
25855;BME280;13680;49.936;11.344;2024-02-15T02:18:58;97064.97;;;10.91;100.00
25855;BME280;13680;49.936;11.344;2024-02-15T02:21:25;97059.59;;;10.91;100.00
25855;BME280;13680;49.936;11.344;2024-02-15T02:23:53;97063.91;;;10.92;100.00
25855;BME280;13680;49.936;11.344;2024-02-15T02:26:22;97068.75;;;10.90;100.00
25855;BME280;13680;49.936;11.344;2024-02-15T02:28:48;97066.59;;;10.92;100.00
25855;BME280;13680;49.936;11.344;2024-02-15T02:31:13;97068.19;;;10.93;100.00
25855;BME280;13680;49.936;11.344;2024-02-15T02:33:39;97068.19;;;10.93;100.00
25855;BME280;13680;49.936;11.344;2024-02-15T02:36:06;97064.38;;;10.94;100.00
25855;BME280;13680;49.936;11.344;2024-02-15T02:38:37;97060.13;;;10.93;100.00
25855;BME280;13680;49.936;11.344;2024-02-15T02:41:05;97062.81;;;10.93;100.00
25855;BME280;13680;49.936;11.344;2024-02-15T02:43:31;97059.81;;;10.95;100.00
25855;BME280;13680;49.936;11.344;2024-02-15T02:45:56;97064.38;;;10.94;100.00
25855;BME280;13680;49.936;11.344;2024-02-15T02:48:22;97052.03;;;10.93;100.00
25855;BME280;13680;49.936;11.344;2024-02-15T02:50:48;97064.19;;;10.91;100.00
25855;BME280;13680;49.936;11.344;2024-02-15T02:53:14;97054.13;;;10.96;100.00
25855;BME280;13680;49.936;11.344;2024-02-15T02:55:41;97070.38;;;10.91;100.00
25855;BME280;13680;49.936;11.344;2024-02-15T02:58:07;97061.78;;;10.89;100.00
25855;BME280;13680;49.936;11.344;2024-02-15T03:00:33;97064.38;;;10.94;100.00
25855;BME280;13680;49.936;11.344;2024-02-15T03:02:59;97063.91;;;10.92;100.00
25855;BME280;13680;49.936;11.344;2024-02-15T03:05:28;97071.38;;;10.95;100.00
25855;BME280;13680;49.936;11.344;2024-02-15T03:07:54;97072.19;;;10.96;100.00
25855;BME280;13680;49.936;11.344;2024-02-15T03:10:20;97071.75;;;10.89;100.00
25855;BME280;13680;49.936;11.344;2024-02-15T03:12:45;97074.13;;;10.90;100.00
25855;BME280;13680;49.936;11.344;2024-02-15T03:15:13;97075.44;;;10.93;100.00
25855;BME280;13680;49.936;11.344;2024-02-15T03:17:43;97071.75;;;10.89;100.00
25855;BME280;13680;49.936;11.344;2024-02-15T03:20:09;97077.13;;;10.89;100.00
25855;BME280;13680;49.936;11.344;2024-02-15T03:22:57;97074.44;;;10.89;100.00
25855;BME280;13680;49.936;11.344;2024-02-15T03:25:23;97080.59;;;10.89;100.00
25855;BME280;13680;49.936;11.344;2024-02-15T03:27:52;97074.66;;;10.92;100.00
25855;BME280;13680;49.936;11.344;2024-02-15T03:30:18;97068.53;;;10.87;100.00
25855;BME280;13680;49.936;11.344;2024-02-15T03:32:47;97075.22;;;10.89;100.00
25855;BME280;13680;49.936;11.344;2024-02-15T03:35:20;97068.75;;;10.90;100.00
25855;BME280;13680;49.936;11.344;2024-02-15T03:37:49;97072.25;;;10.91;100.00
25855;BME280;13680;49.936;11.344;2024-02-15T03:40:19;97072.53;;;10.89;100.00
25855;BME280;13680;49.936;11.344;2024-02-15T03:42:45;97063.38;;;10.90;100.00
25855;BME280;13680;49.936;11.344;2024-02-15T03:45:10;97063.59;;;10.94;100.00
25855;BME280;13680;49.936;11.344;2024-02-15T03:47:36;97064.38;;;10.94;100.00
25855;BME280;13680;49.936;11.344;2024-02-15T03:50:03;97059.94;;;11.04;100.00
25855;BME280;13680;49.936;11.344;2024-02-15T03:52:28;97065.03;;;11.05;100.00
25855;BME280;13680;49.936;11.344;2024-02-15T03:54:57;97078.06;;;10.98;100.00
25855;BME280;13680;49.936;11.344;2024-02-15T03:57:23;97063.72;;;11.03;100.00
25855;BME280;13680;49.936;11.344;2024-02-15T03:59:49;97076.38;;;11.02;100.00
25855;BME280;13680;49.936;11.344;2024-02-15T04:02:20;97077.41;;;11.06;100.00
25855;BME280;13680;49.936;11.344;2024-02-15T04:04:45;97067.94;;;11.09;100.00
25855;BME280;13680;49.936;11.344;2024-02-15T04:07:22;97082.78;;;11.06;100.00
25855;BME280;13680;49.936;11.344;2024-02-15T04:09:50;97076.38;;;11.02;100.00
25855;BME280;13680;49.936;11.344;2024-02-15T04:12:16;97082.56;;;11.03;100.00
25855;BME280;13680;49.936;11.344;2024-02-15T04:14:43;97079.28;;;11.06;100.00
25855;BME280;13680;49.936;11.344;2024-02-15T04:17:10;97094.94;;;11.04;100.00
25855;BME280;13680;49.936;11.344;2024-02-15T04:19:35;97092.81;;;11.01;100.00
25855;BME280;13680;49.936;11.344;2024-02-15T04:22:02;97091.56;;;11.12;100.00
25855;BME280;13680;49.936;11.344;2024-02-15T04:24:32;97098.03;;;11.11;100.00
25855;BME280;13680;49.936;11.344;2024-02-15T04:26:57;97088.47;;;11.05;100.00
25855;BME280;13680;49.936;11.344;2024-02-15T04:29:24;97089.03;;;11.02;100.00
25855;BME280;13680;49.936;11.344;2024-02-15T04:31:49;97081.97;;;11.06;100.00
25855;BME280;13680;49.936;11.344;2024-02-15T04:34:18;97082.25;;;11.04;100.00
25855;BME280;13680;49.936;11.344;2024-02-15T04:36:47;97084.94;;;11.04;100.00
25855;BME280;13680;49.936;11.344;2024-02-15T04:39:18;97086.03;;;11.03;100.00
25855;BME280;13680;49.936;11.344;2024-02-15T04:41:50;97079.88;;;11.03;100.00
25855;BME280;13680;49.936;11.344;2024-02-15T04:44:16;97087.13;;;11.02;100.00
25855;BME280;13680;49.936;11.344;2024-02-15T04:46:41;97088.72;;;11.03;100.00
25855;BME280;13680;49.936;11.344;2024-02-15T04:49:08;97088.03;;;10.97;100.00
25855;BME280;13680;49.936;11.344;2024-02-15T04:51:33;97090.72;;;10.97;100.00
25855;BME280;13680;49.936;11.344;2024-02-15T04:53:59;97089.63;;;10.99;100.00
25855;BME280;13680;49.936;11.344;2024-02-15T04:56:27;97085.56;;;11.01;100.00
25855;BME280;13680;49.936;11.344;2024-02-15T04:58:52;97082.34;;;10.99;100.00
25855;BME280;13680;49.936;11.344;2024-02-15T05:01:19;97083.66;;;11.02;100.00
25855;BME280;13680;49.936;11.344;2024-02-15T05:03:44;97080.44;;;11.00;100.00
25855;BME280;13680;49.936;11.344;2024-02-15T05:06:10;97085.34;;;10.97;100.00
25855;BME280;13680;49.936;11.344;2024-02-15T05:08:41;97087.13;;;11.02;100.00
25855;BME280;13680;49.936;11.344;2024-02-15T05:11:10;97091.16;;;11.05;100.00
25855;BME280;13680;49.936;11.344;2024-02-15T05:13:43;97084.94;;;11.04;100.00
25855;BME280;13680;49.936;11.344;2024-02-15T05:16:09;97081.47;;;11.04;100.00
25855;BME280;13680;49.936;11.344;2024-02-15T05:18:34;97088.47;;;11.05;100.00
25855;BME280;13680;49.936;11.344;2024-02-15T05:21:01;97086.25;;;11.07;100.00
25855;BME280;13680;49.936;11.344;2024-02-15T05:23:26;97081.47;;;11.04;100.00
25855;BME280;13680;49.936;11.344;2024-02-15T05:25:52;97080.16;;;11.01;100.00
25855;BME280;13680;49.936;11.344;2024-02-15T05:28:19;97076.38;;;11.02;100.00
25855;BME280;13680;49.936;11.344;2024-02-15T05:30:45;97080.38;;;11.05;100.00
25855;BME280;13680;49.936;11.344;2024-02-15T05:33:11;97083.56;;;11.07;100.00
25855;BME280;13680;49.936;11.344;2024-02-15T05:35:36;97084.75;;;11.01;100.00
25855;BME280;13680;49.936;11.344;2024-02-15T05:38:05;97082.88;;;11.01;100.00
25855;BME280;13680;49.936;11.344;2024-02-15T05:40:32;97083.13;;;11.00;100.00
25855;BME280;13680;49.936;11.344;2024-02-15T05:42:57;97086.34;;;11.02;100.00
25855;BME280;13680;49.936;11.344;2024-02-15T05:47:54;97091.16;;;11.05;100.00
25855;BME280;13680;49.936;11.344;2024-02-15T05:50:19;97081.47;;;11.04;100.00
25855;BME280;13680;49.936;11.344;2024-02-15T05:52:47;97092.50;;;11.02;100.00
25855;BME280;13680;49.936;11.344;2024-02-15T05:55:12;97092.50;;;11.02;100.00
25855;BME280;13680;49.936;11.344;2024-02-15T05:57:43;97087.13;;;11.02;100.00
25855;BME280;13680;49.936;11.344;2024-02-15T06:00:08;97087.88;;;11.08;100.00
25855;BME280;13680;49.936;11.344;2024-02-15T06:02:34;97090.94;;;11.01;100.00
25855;BME280;13680;49.936;11.344;2024-02-15T06:04:59;97089.53;;;11.04;100.00
25855;BME280;13680;49.936;11.344;2024-02-15T06:07:28;97087.94;;;11.03;100.00
25855;BME280;13680;49.936;11.344;2024-02-15T06:09:54;97092.50;;;11.02;100.00
25855;BME280;13680;49.936;11.344;2024-02-15T06:12:19;97094.63;;;11.05;100.00
25855;BME280;13680;49.936;11.344;2024-02-15T06:14:45;97086.56;;;11.05;100.00
25855;BME280;13680;49.936;11.344;2024-02-15T06:17:11;97089.53;;;11.04;100.00
25855;BME280;13680;49.936;11.344;2024-02-15T06:19:37;97092.16;;;11.09;100.00
25855;BME280;13680;49.936;11.344;2024-02-15T06:22:03;97093.63;;;11.01;100.00
25855;BME280;13680;49.936;11.344;2024-02-15T06:24:29;97087.34;;;11.06;100.00
25855;BME280;13680;49.936;11.344;2024-02-15T06:26:54;97096.03;;;11.03;100.00
25855;BME280;13680;49.936;11.344;2024-02-15T06:29:25;97103.78;;;11.04;100.00
25855;BME280;13680;49.936;11.344;2024-02-15T06:32:09;97102.41;;;11.07;100.00
25855;BME280;13680;49.936;11.344;2024-02-15T06:34:53;97105.41;;;11.05;100.00
25855;BME280;13680;49.936;11.344;2024-02-15T06:37:57;97109.38;;;11.08;100.00
25855;BME280;13680;49.936;11.344;2024-02-15T06:40:41;97102.69;;;11.05;100.00
25855;BME280;13680;49.936;11.344;2024-02-15T06:43:07;97117.16;;;11.09;100.00
25855;BME280;13680;49.936;11.344;2024-02-15T06:45:33;97115.88;;;11.07;100.00
25855;BME280;13680;49.936;11.344;2024-02-15T06:48:00;97117.38;;;11.13;100.00
25855;BME280;13680;49.936;11.344;2024-02-15T06:50:25;97119.38;;;11.07;100.00
25855;BME280;13680;49.936;11.344;2024-02-15T06:52:51;97120.88;;;11.13;100.00
25855;BME280;13680;49.936;11.344;2024-02-15T06:55:16;97122.16;;;11.16;100.00
25855;BME280;13680;49.936;11.344;2024-02-15T06:57:42;97124.38;;;11.14;100.00
25855;BME280;13680;49.936;11.344;2024-02-15T07:00:09;97122.47;;;11.14;100.00
25855;BME280;13680;49.936;11.344;2024-02-15T07:02:39;97118.69;;;11.16;100.00
25855;BME280;13680;49.936;11.344;2024-02-15T07:05:05;97122.91;;;11.22;100.00
25855;BME280;13680;49.936;11.344;2024-02-15T07:07:31;97117.72;;;11.25;100.00
25855;BME280;13680;49.936;11.344;2024-02-15T07:09:57;97119.31;;;11.26;100.00
25855;BME280;13680;49.936;11.344;2024-02-15T07:12:23;97111.22;;;11.26;100.00
25855;BME280;13680;49.936;11.344;2024-02-15T07:14:48;97120.34;;;11.30;100.00
25855;BME280;13680;49.936;11.344;2024-02-15T07:17:14;97122.22;;;11.30;100.00
25855;BME280;13680;49.936;11.344;2024-02-15T07:19:46;97120.03;;;11.32;100.00
25855;BME280;13680;49.936;11.344;2024-02-15T07:22:15;97115.34;;;11.38;100.00
25855;BME280;13680;49.936;11.344;2024-02-15T07:24:40;97111.56;;;11.39;100.00
25855;BME280;13680;49.936;11.344;2024-02-15T07:27:05;97116.56;;;11.45;100.00
25855;BME280;13680;49.936;11.344;2024-02-15T07:29:31;97108.22;;;11.47;100.00
25855;BME280;13680;49.936;11.344;2024-02-15T07:31:58;97114.91;;;11.50;100.00
25855;BME280;13680;49.936;11.344;2024-02-15T07:34:25;97117.50;;;11.55;100.00
25855;BME280;13680;49.936;11.344;2024-02-15T07:36:51;97107.09;;;11.48;100.00
25855;BME280;13680;49.936;11.344;2024-02-15T07:39:17;97115.78;;;11.45;100.00
25855;BME280;13680;49.936;11.344;2024-02-15T07:41:48;97110.91;;;11.47;100.00
25855;BME280;13680;49.936;11.344;2024-02-15T07:44:14;97113.28;;;11.49;100.00
25855;BME280;13680;49.936;11.344;2024-02-15T07:46:41;97119.66;;;11.39;100.00
25855;BME280;13680;49.936;11.344;2024-02-15T07:49:06;97116.41;;;11.56;100.00
25855;BME280;13680;49.936;11.344;2024-02-15T07:51:33;97114.09;;;11.63;100.00
25855;BME280;13680;49.936;11.344;2024-02-15T07:53:58;97120.88;;;11.60;100.00
25855;BME280;13680;49.936;11.344;2024-02-15T07:56:24;97118.00;;;11.71;100.00
25855;BME280;13680;49.936;11.344;2024-02-15T07:58:49;97112.41;;;11.67;100.00
25855;BME280;13680;49.936;11.344;2024-02-15T08:01:17;97113.44;;;11.85;100.00
25855;BME280;13680;49.936;11.344;2024-02-15T08:03:43;97108.25;;;11.89;100.00
25855;BME280;13680;49.936;11.344;2024-02-15T08:06:14;97115.28;;;12.04;99.59
25855;BME280;13680;49.936;11.344;2024-02-15T08:08:44;97117.88;;;12.09;99.74
25855;BME280;13680;49.936;11.344;2024-02-15T08:11:14;97111.28;;;12.15;99.09
25855;BME280;13680;49.936;11.344;2024-02-15T08:13:50;97106.56;;;12.21;97.72
25855;BME280;13680;49.936;11.344;2024-02-15T08:16:20;97110.19;;;12.16;97.65
25855;BME280;13680;49.936;11.344;2024-02-15T08:18:49;97102.09;;;12.16;98.13
25855;BME280;13680;49.936;11.344;2024-02-15T08:21:25;97104.19;;;12.19;97.57
25855;BME280;13680;49.936;11.344;2024-02-15T08:23:50;97091.28;;;12.30;97.61
25855;BME280;13680;49.936;11.344;2024-02-15T08:26:15;97095.66;;;12.40;97.19
25855;BME280;13680;49.936;11.344;2024-02-15T08:28:42;97091.16;;;12.49;97.32
25855;BME280;13680;49.936;11.344;2024-02-15T08:31:08;97086.00;;;12.61;97.42
25855;BME280;13680;49.936;11.344;2024-02-15T08:33:35;97093.47;;;12.79;96.46
25855;BME280;13680;49.936;11.344;2024-02-15T08:36:01;97084.09;;;12.76;96.19
25855;BME280;13680;49.936;11.344;2024-02-15T08:38:27;97088.53;;;12.81;96.15
25855;BME280;13680;49.936;11.344;2024-02-15T08:40:53;97087.19;;;12.69;96.35
25855;BME280;13680;49.936;11.344;2024-02-15T08:43:18;97082.28;;;12.71;96.19
25855;BME280;13680;49.936;11.344;2024-02-15T08:45:43;97083.00;;;12.77;95.30
25855;BME280;13680;49.936;11.344;2024-02-15T08:48:10;97080.44;;;12.81;95.39
25855;BME280;13680;49.936;11.344;2024-02-15T08:50:35;97082.69;;;12.79;95.22
25855;BME280;13680;49.936;11.344;2024-02-15T08:53:01;97082.56;;;12.84;93.59
25855;BME280;13680;49.936;11.344;2024-02-15T08:55:31;97081.03;;;12.91;94.26
25855;BME280;13680;49.936;11.344;2024-02-15T08:57:57;97080.41;;;12.94;93.99
25855;BME280;13680;49.936;11.344;2024-02-15T09:00:22;97092.22;;;12.99;93.88
25855;BME280;13680;49.936;11.344;2024-02-15T09:02:49;97087.03;;;13.11;93.67
25855;BME280;13680;49.936;11.344;2024-02-15T09:05:14;97084.88;;;13.22;92.76
25855;BME280;13680;49.936;11.344;2024-02-15T09:07:44;97092.53;;;13.29;93.13
25855;BME280;13680;49.936;11.344;2024-02-15T09:10:13;97085.91;;;13.35;92.22
25855;BME280;13680;49.936;11.344;2024-02-15T09:12:40;97084.09;;;13.44;92.02
25855;BME280;13680;49.936;11.344;2024-02-15T09:15:07;97086.34;;;13.51;92.02
25855;BME280;13680;49.936;11.344;2024-02-15T09:17:33;97083.22;;;13.57;91.13
25855;BME280;13680;49.936;11.344;2024-02-15T09:22:32;97090.34;;;13.31;88.31
25855;BME280;13680;49.936;11.344;2024-02-15T09:24:57;97082.00;;;13.41;88.11
25855;BME280;13680;49.936;11.344;2024-02-15T09:27:23;97088.44;;;13.54;87.38
25855;BME280;13680;49.936;11.344;2024-02-15T09:29:48;97085.50;;;13.41;86.49
25855;BME280;13680;49.936;11.344;2024-02-15T09:32:13;97091.31;;;13.57;86.57
25855;BME280;13680;49.936;11.344;2024-02-15T09:34:39;97090.03;;;13.64;86.78
25855;BME280;13680;49.936;11.344;2024-02-15T09:37:05;97084.75;;;13.50;86.13
25855;BME280;13680;49.936;11.344;2024-02-15T09:39:31;97089.22;;;13.32;86.88
25855;BME280;13680;49.936;11.344;2024-02-15T09:41:56;97086.84;;;13.53;86.77
25855;BME280;13680;49.936;11.344;2024-02-15T09:44:25;97087.28;;;13.46;88.22
25855;BME280;13680;49.936;11.344;2024-02-15T09:47:02;97073.22;;;13.67;87.14
25855;BME280;13680;49.936;11.344;2024-02-15T09:49:29;97075.16;;;13.75;86.68
25855;BME280;13680;49.936;11.344;2024-02-15T09:51:55;97071.94;;;14.13;85.98
25855;BME280;13680;49.936;11.344;2024-02-15T09:54:22;97074.19;;;14.29;84.93
25855;BME280;13680;49.936;11.344;2024-02-15T09:56:50;97074.72;;;14.57;82.13
25855;BME280;13680;49.936;11.344;2024-02-15T09:59:16;97071.69;;;14.59;82.25
25855;BME280;13680;49.936;11.344;2024-02-15T10:01:42;97074.13;;;14.69;81.98
25855;BME280;13680;49.936;11.344;2024-02-15T10:04:08;97071.41;;;14.95;82.71
25855;BME280;13680;49.936;11.344;2024-02-15T10:06:33;97074.28;;;14.81;81.68
25855;BME280;13680;49.936;11.344;2024-02-15T10:09:24;97075.06;;;14.91;81.82
25855;BME280;13680;49.936;11.344;2024-02-15T10:11:58;97064.34;;;15.20;80.04
25855;BME280;13680;49.936;11.344;2024-02-15T10:14:25;97071.09;;;14.97;80.34
25855;BME280;13680;49.936;11.344;2024-02-15T10:16:52;97066.28;;;14.85;80.28
25855;BME280;13680;49.936;11.344;2024-02-15T10:19:21;97064.25;;;14.99;79.45
25855;BME280;13680;49.936;11.344;2024-02-15T10:21:54;97061.22;;;14.83;79.97
25855;BME280;13680;49.936;11.344;2024-02-15T10:24:23;97055.28;;;15.08;79.88
25855;BME280;13680;49.936;11.344;2024-02-15T10:27:00;97064.53;;;15.06;78.75
25855;BME280;13680;49.936;11.344;2024-02-15T10:29:26;97060.56;;;15.04;78.61
25855;BME280;13680;49.936;11.344;2024-02-15T10:31:56;97056.88;;;15.17;79.03
25855;BME280;13680;49.936;11.344;2024-02-15T10:34:22;97055.44;;;15.11;76.94
25855;BME280;13680;49.936;11.344;2024-02-15T10:36:49;97049.25;;;15.02;77.81
25855;BME280;13680;49.936;11.344;2024-02-15T10:39:17;97046.72;;;15.05;76.84
25855;BME280;13680;49.936;11.344;2024-02-15T10:44:18;97037.59;;;15.19;77.71
25855;BME280;13680;49.936;11.344;2024-02-15T10:46:46;97038.56;;;15.14;76.64
25855;BME280;13680;49.936;11.344;2024-02-15T10:49:13;97042.41;;;15.04;76.49
25855;BME280;13680;49.936;11.344;2024-02-15T10:51:43;97033.91;;;15.32;75.09
25855;BME280;13680;49.936;11.344;2024-02-15T10:54:12;97042.09;;;15.53;75.62
25855;BME280;13680;49.936;11.344;2024-02-15T10:56:43;97024.66;;;15.72;75.96
25855;BME280;13680;49.936;11.344;2024-02-15T10:59:17;97027.75;;;15.62;73.21
25855;BME280;13680;49.936;11.344;2024-02-15T11:01:45;97028.59;;;15.36;73.82
25855;BME280;13680;49.936;11.344;2024-02-15T11:04:15;97026.63;;;15.63;72.93
25855;BME280;13680;49.936;11.344;2024-02-15T11:06:42;97023.63;;;15.55;73.00
25855;BME280;13680;49.936;11.344;2024-02-15T11:09:10;97022.31;;;15.62;73.02
25855;BME280;13680;49.936;11.344;2024-02-15T11:11:37;97019.41;;;15.67;73.48
25855;BME280;13680;49.936;11.344;2024-02-15T11:14:29;97014.75;;;15.76;72.81
25855;BME280;13680;49.936;11.344;2024-02-15T11:16:58;97011.91;;;15.64;74.14
25855;BME280;13680;49.936;11.344;2024-02-15T11:22:00;97013.75;;;15.90;72.11
25855;BME280;13680;49.936;11.344;2024-02-15T11:24:30;97013.88;;;15.93;70.94
25855;BME280;13680;49.936;11.344;2024-02-15T11:26:58;97008.06;;;16.03;71.45
25855;BME280;13680;49.936;11.344;2024-02-15T11:35:15;96999.72;;;15.87;70.53
25855;BME280;13680;49.936;11.344;2024-02-15T11:40:16;96992.81;;;16.41;69.91
25855;BME280;13680;49.936;11.344;2024-02-15T11:42:43;96995.75;;;16.69;68.80
25855;BME280;13680;49.936;11.344;2024-02-15T11:45:08;96994.16;;;16.90;67.56
25855;BME280;13680;49.936;11.344;2024-02-15T11:47:38;96987.69;;;16.61;67.47
25855;BME280;13680;49.936;11.344;2024-02-15T11:50:07;96997.03;;;16.30;68.94
25855;BME280;13680;49.936;11.344;2024-02-15T11:52:34;96990.09;;;16.20;68.81
25855;BME280;13680;49.936;11.344;2024-02-15T11:55:08;96991.78;;;16.03;69.91
25855;BME280;13680;49.936;11.344;2024-02-15T11:57:40;96986.13;;;15.96;70.55
25855;BME280;13680;49.936;11.344;2024-02-15T12:00:25;96984.16;;;16.27;69.92
25855;BME280;13680;49.936;11.344;2024-02-15T12:03:09;96984.09;;;16.35;71.10
25855;BME280;13680;49.936;11.344;2024-02-15T12:05:54;96976.88;;;16.40;69.86
25855;BME280;13680;49.936;11.344;2024-02-15T12:08:38;96981.41;;;16.06;70.81
25855;BME280;13680;49.936;11.344;2024-02-15T12:11:23;96969.44;;;16.07;70.65
25855;BME280;13680;49.936;11.344;2024-02-15T12:14:06;96960.03;;;16.25;70.88
25855;BME280;13680;49.936;11.344;2024-02-15T12:17:01;96956.06;;;16.23;70.26
25855;BME280;13680;49.936;11.344;2024-02-15T12:19:47;96965.22;;;16.18;70.26
25855;BME280;13680;49.936;11.344;2024-02-15T12:22:15;96962.44;;;16.27;70.51
25855;BME280;13680;49.936;11.344;2024-02-15T12:24:40;96957.06;;;16.39;69.58
25855;BME280;13680;49.936;11.344;2024-02-15T12:27:06;96955.03;;;16.36;69.92
25855;BME280;13680;49.936;11.344;2024-02-15T12:29:32;96956.84;;;16.44;69.82
25855;BME280;13680;49.936;11.344;2024-02-15T12:31:58;96952.78;;;16.38;70.35
25855;BME280;13680;49.936;11.344;2024-02-15T12:34:24;96951.91;;;16.46;69.29
25855;BME280;13680;49.936;11.344;2024-02-15T12:36:49;96949.59;;;16.57;69.07
25855;BME280;13680;49.936;11.344;2024-02-15T12:39:24;96954.28;;;16.81;68.44
25855;BME280;13680;49.936;11.344;2024-02-15T12:41:50;96950.69;;;16.90;66.98
25855;BME280;13680;49.936;11.344;2024-02-15T12:44:19;96950.03;;;16.93;65.83
25855;BME280;13680;49.936;11.344;2024-02-15T12:46:54;96953.16;;;16.82;65.97
25855;BME280;13680;49.936;11.344;2024-02-15T12:51:50;96947.31;;;16.59;65.50
25855;BME280;13680;49.936;11.344;2024-02-15T12:54:19;96936.34;;;16.34;67.04
25855;BME280;13680;49.936;11.344;2024-02-15T12:56:46;96935.88;;;16.53;66.39
25855;BME280;13680;49.936;11.344;2024-02-15T12:59:14;96927.66;;;16.96;65.02
25855;BME280;13680;49.936;11.344;2024-02-15T13:01:39;96935.84;;;17.33;64.36
25855;BME280;13680;49.936;11.344;2024-02-15T13:04:04;96923.56;;;17.14;64.67
25855;BME280;13680;49.936;11.344;2024-02-15T13:06:31;96919.53;;;17.45;64.23